Time;durP1;ratioP1;P1;durP2;ratioP2;P2;SDS_P1;SDS_P2;PMS_P1;PMS_P2;Temp;Humidity;BMP_temperature;BMP_pressure;BME280_temperature;BME280_humidity;BME280_pressure;Samples;Min_cycle;Max_cycle;Signal;HPM_P1;HPM_P2
2022/03/05 00:00:52;;;;;;;9.73;3.57;;;;;;;8.33;62.19;98876.78;4898439;29;20215;-88
2022/03/05 00:03:18;;;;;;;8.03;4.20;;;;;;;8.21;62.49;98872.09;4898414;29;20274;-87
2022/03/05 00:05:44;;;;;;;11.70;4.87;;;;;;;8.10;63.21;98874.38;4898312;29;20199;-88
2022/03/05 00:08:10;;;;;;;7.70;4.50;;;;;;;8.05;62.95;98878.03;4898183;29;20207;-88
2022/03/05 00:10:36;;;;;;;9.73;4.70;;;;;;;7.84;63.73;98884.22;4898300;29;20183;-88
2022/03/05 00:13:02;;;;;;;8.23;3.93;;;;;;;7.73;64.97;98881.25;4898507;29;20187;-88
2022/03/05 00:15:28;;;;;;;8.73;4.33;;;;;;;7.67;64.73;98875.50;4898686;29;20195;-88
2022/03/05 00:17:55;;;;;;;8.60;4.70;;;;;;;7.54;65.60;98879.56;4898107;29;20618;-88
2022/03/05 00:20:21;;;;;;;11.40;3.93;;;;;;;7.55;65.95;98883.88;4898043;29;20190;-88
2022/03/05 00:22:47;;;;;;;7.93;4.03;;;;;;;7.62;65.51;98878.31;4898092;29;20179;-88
2022/03/05 00:25:13;;;;;;;9.83;3.90;;;;;;;7.64;65.42;98884.28;4898008;29;20234;-87
2022/03/05 00:27:40;;;;;;;12.50;4.97;;;;;;;7.70;64.92;98884.03;4897916;29;20211;-88
2022/03/05 00:30:07;;;;;;;9.97;3.80;;;;;;;7.73;64.85;98888.25;4881746;29;20222;-87
2022/03/05 00:32:33;;;;;;;9.00;4.67;;;;;;;7.79;64.39;98885.34;4898239;29;20254;-88
2022/03/05 00:34:58;;;;;;;10.70;4.37;;;;;;;7.88;64.22;98883.19;4897886;29;20179;-88
2022/03/05 00:37:25;;;;;;;6.40;3.37;;;;;;;7.86;64.05;98885.00;4898124;29;20187;-87
2022/03/05 00:39:50;;;;;;;6.87;4.27;;;;;;;7.82;64.15;98885.22;4881368;29;20207;-87
2022/03/05 00:42:16;;;;;;;8.63;4.27;;;;;;;7.88;63.90;98880.59;4897860;29;20261;-87
2022/03/05 00:44:42;;;;;;;8.50;4.73;;;;;;;7.94;63.53;98880.28;4897843;29;20191;-88
2022/03/05 00:47:07;;;;;;;8.90;4.03;;;;;;;7.84;63.91;98875.56;4897772;29;20175;-88
2022/03/05 00:49:34;;;;;;;9.57;4.57;;;;;;;7.81;63.81;98886.97;4897715;29;20234;-87
2022/03/05 00:52:00;;;;;;;9.57;4.53;;;;;;;7.76;64.29;98880.28;4881223;29;20206;-88
2022/03/05 00:54:25;;;;;;;11.27;4.63;;;;;;;7.78;64.29;98884.50;4899519;29;20206;-87
2022/03/05 00:56:51;;;;;;;9.53;4.80;;;;;;;7.94;63.71;98876.81;4901923;29;20191;-87
2022/03/05 00:59:16;;;;;;;9.90;4.70;;;;;;;8.08;63.08;98879.66;4901607;29;20701;-88
2022/03/05 01:01:42;;;;;;;9.67;4.50;;;;;;;8.13;63.14;98872.44;4885016;29;20230;-88
2022/03/05 01:04:07;;;;;;;12.17;4.20;;;;;;;8.19;62.00;98868.72;4901509;29;20175;-88
2022/03/05 01:06:34;;;;;;;11.83;5.30;;;;;;;8.18;62.30;98870.47;4901370;29;20261;-87
2022/03/05 01:09:00;;;;;;;8.63;5.10;;;;;;;8.13;61.85;98864.63;4901423;29;20547;-87
2022/03/05 01:11:26;;;;;;;11.50;5.30;;;;;;;7.88;63.51;98864.06;4901402;29;20183;-88
2022/03/05 01:13:52;;;;;;;10.17;4.57;;;;;;;7.78;64.00;98861.03;4901404;29;20190;-88
2022/03/05 01:16:17;;;;;;;8.23;4.03;;;;;;;7.69;64.42;98861.47;4901352;29;20210;-88
2022/03/05 01:18:43;;;;;;;9.63;4.53;;;;;;;7.61;65.36;98865.31;4901766;29;20247;-88
2022/03/05 01:21:09;;;;;;;11.07;3.93;;;;;;;7.68;64.71;98871.97;4901219;29;20211;-88
2022/03/05 01:23:34;;;;;;;10.83;4.30;;;;;;;7.80;64.75;98881.84;4901444;29;20186;-87
2022/03/05 01:26:00;;;;;;;8.93;5.00;;;;;;;7.87;64.44;98880.63;4901106;29;20198;-87
2022/03/05 01:28:26;;;;;;;5.40;3.87;;;;;;;7.89;64.20;98884.88;4901024;29;20620;-88
2022/03/05 01:30:51;;;;;;;9.80;4.77;;;;;;;7.97;63.96;98881.91;4901041;29;20210;-88
2022/03/05 01:33:17;;;;;;;8.90;4.10;;;;;;;8.04;63.30;98884.16;4884496;29;20605;-87
2022/03/05 01:35:48;;;;;;;11.33;4.43;;;;;;;8.00;62.87;98882.63;4884459;29;20183;-88
2022/03/05 01:38:14;;;;;;;11.83;5.13;;;;;;;7.92;63.13;98889.94;4900927;29;20664;-88
2022/03/05 01:40:40;;;;;;;15.13;5.50;;;;;;;7.90;63.32;98888.34;4900837;29;20266;-88
2022/03/05 01:43:10;;;;;;;8.47;4.27;;;;;;;7.88;63.12;98893.63;4901080;29;20187;-88
2022/03/05 01:45:36;;;;;;;8.97;4.20;;;;;;;7.84;63.36;98889.44;4900811;29;20626;-88
2022/03/05 01:48:02;;;;;;;8.50;5.20;;;;;;;7.82;63.36;98886.06;4900642;29;20207;-88
2022/03/05 01:50:28;;;;;;;11.10;5.00;;;;;;;7.81;63.77;98879.16;4900709;29;20262;-88
2022/03/05 01:52:54;;;;;;;15.00;5.77;;;;;;;7.78;63.40;98879.28;4900638;29;20303;-88
2022/03/05 01:55:20;;;;;;;9.83;6.33;;;;;;;7.78;64.03;98881.06;4900633;29;20226;-87
2022/03/05 01:57:46;;;;;;;13.03;4.47;;;;;;;7.77;64.39;98876.75;4900583;29;20175;-88
2022/03/05 02:00:13;;;;;;;8.10;5.07;;;;;;;7.76;64.36;98878.50;4900604;29;20274;-88
2022/03/05 02:02:39;;;;;;;13.40;6.30;;;;;;;7.77;64.84;98876.75;4901008;29;20187;-88
2022/03/05 02:05:05;;;;;;;13.73;5.77;;;;;;;7.76;64.30;98873.28;4900162;29;20242;-88
2022/03/05 02:07:31;;;;;;;12.63;5.93;;;;;;;7.84;64.33;98876.41;4900037;29;20680;-88
2022/03/05 02:09:57;;;;;;;10.40;5.27;;;;;;;7.92;63.20;98876.06;4900915;29;20535;-88
2022/03/05 02:12:29;;;;;;;10.83;5.43;;;;;;;7.92;63.46;98882.13;4900304;29;20187;-88
2022/03/05 02:14:56;;;;;;;15.53;6.40;;;;;;;7.94;63.21;98880.28;4900296;29;20274;-88
2022/03/05 02:17:21;;;;;;;10.53;4.93;;;;;;;7.91;62.96;98880.41;4900268;29;20185;-87
2022/03/05 02:19:46;;;;;;;8.23;5.07;;;;;;;7.85;63.60;98879.88;4883729;29;20573;-88
2022/03/05 02:22:12;;;;;;;12.67;5.00;;;;;;;7.78;63.79;98881.91;4900444;29;20219;-88
2022/03/05 02:24:41;;;;;;;10.40;5.57;;;;;;;7.75;64.13;98879.44;4900106;29;20190;-87
2022/03/05 02:27:07;;;;;;;9.77;5.27;;;;;;;7.53;64.67;98896.09;4900195;29;20270;-88
2022/03/05 02:29:37;;;;;;;9.13;4.77;;;;;;;7.53;65.23;98898.72;4900228;29;20202;-88
2022/03/05 02:32:04;;;;;;;8.50;5.07;;;;;;;7.58;65.78;98889.78;4899993;29;20190;-88
2022/03/05 02:34:30;;;;;;;12.27;5.57;;;;;;;7.61;65.13;98896.63;4900439;29;20179;-88
2022/03/05 02:36:56;;;;;;;10.27;4.97;;;;;;;7.66;64.53;98890.28;4899856;29;20565;-88
2022/03/05 02:39:24;;;;;;;11.43;5.60;;;;;;;7.72;65.05;98890.03;4900105;29;20194;-88
2022/03/05 02:41:51;;;;;;;11.10;4.93;;;;;;;7.74;65.10;98890.78;4900047;29;20198;-88
2022/03/05 02:44:17;;;;;;;9.37;4.83;;;;;;;7.78;64.95;98894.13;4899760;29;20185;-87
2022/03/05 02:46:42;;;;;;;12.33;5.47;;;;;;;7.83;63.90;98890.38;4883132;29;20182;-88
2022/03/05 02:49:08;;;;;;;11.57;5.20;;;;;;;7.79;63.87;98901.84;4899621;29;20231;-87
2022/03/05 02:51:34;;;;;;;11.37;5.43;;;;;;;7.76;64.76;98898.53;4900116;29;20183;-88
2022/03/05 02:54:00;;;;;;;9.13;4.47;;;;;;;7.82;64.65;98899.13;4899550;29;20179;-88
2022/03/05 02:56:25;;;;;;;13.33;5.67;;;;;;;7.86;64.26;98898.03;4899550;29;20179;-87
2022/03/05 02:58:51;;;;;;;10.87;4.97;;;;;;;7.94;63.67;98892.47;4899458;29;20595;-88
2022/03/05 03:01:16;;;;;;;9.50;5.23;;;;;;;7.90;63.81;98899.63;4899481;29;20207;-87
2022/03/05 03:03:42;;;;;;;12.33;4.87;;;;;;;7.89;63.40;98897.06;4899749;29;20685;-88
2022/03/05 03:06:07;;;;;;;13.83;5.97;;;;;;;7.89;63.64;98903.13;4899718;29;20183;-88
2022/03/05 03:08:33;;;;;;;8.63;4.77;;;;;;;7.87;64.00;98899.75;4899775;29;20195;-87
2022/03/05 03:10:59;;;;;;;9.67;4.93;;;;;;;7.78;63.76;98905.38;4899326;29;20202;-88
2022/03/05 03:13:25;;;;;;;9.03;5.27;;;;;;;7.72;64.54;98912.66;4899233;29;20179;-87
2022/03/05 03:15:50;;;;;;;11.13;5.63;;;;;;;7.69;64.05;98915.38;4899125;29;20183;-87
2022/03/05 03:18:17;;;;;;;11.07;5.67;;;;;;;7.69;64.58;98921.44;4898636;29;20262;-87
2022/03/05 03:20:43;;;;;;;13.73;6.50;;;;;;;7.76;64.49;98917.66;4899112;29;20185;-87
2022/03/05 03:23:10;;;;;;;10.83;4.40;;;;;;;7.80;64.04;98918.38;4899057;29;20179;-88
2022/03/05 03:25:38;;;;;;;10.37;5.40;;;;;;;7.83;63.60;98913.00;4899237;29;20646;-88
2022/03/05 03:28:04;;;;;;;8.67;5.30;;;;;;;7.77;64.07;98919.34;4898840;29;20199;-87
2022/03/05 03:30:30;;;;;;;17.03;5.63;;;;;;;7.83;64.07;98919.09;4898946;29;20191;-88
2022/03/05 03:32:55;;;;;;;13.63;5.03;;;;;;;7.77;64.09;98908.91;4898892;29;20260;-88
2022/03/05 03:35:21;;;;;;;10.57;4.87;;;;;;;7.82;63.63;98922.59;4899386;29;20187;-88
2022/03/05 03:37:47;;;;;;;10.23;5.17;;;;;;;7.80;64.09;98919.22;4898731;29;20171;-88
2022/03/05 03:40:15;;;;;;;7.43;4.00;;;;;;;7.87;63.48;98922.38;4898998;29;20183;-88
2022/03/05 03:42:41;;;;;;;10.67;6.13;;;;;;;7.86;63.77;98908.47;4898680;29;20214;-87
2022/03/05 03:45:07;;;;;;;10.10;5.73;;;;;;;7.93;63.08;98901.25;4898658;29;20214;-88
2022/03/05 03:47:33;;;;;;;9.03;5.00;;;;;;;7.90;63.12;98906.59;4898554;29;20182;-87
2022/03/05 03:49:59;;;;;;;11.37;4.73;;;;;;;7.90;62.88;98914.41;4899128;29;20246;-88
2022/03/05 03:52:25;;;;;;;8.97;4.03;;;;;;;7.86;62.72;98913.72;4898530;29;20258;-88
2022/03/05 03:54:50;;;;;;;11.07;4.93;;;;;;;7.80;63.10;98914.00;4899031;29;20222;-87
2022/03/05 03:57:16;;;;;;;12.57;5.37;;;;;;;7.73;63.72;98912.56;4899035;29;20267;-88
2022/03/05 03:59:42;;;;;;;9.47;5.37;;;;;;;7.70;64.07;98922.31;4898450;29;20245;-88
2022/03/05 04:02:08;;;;;;;8.67;5.10;;;;;;;7.68;64.41;98926.75;4898639;29;20179;-88
2022/03/05 04:04:34;;;;;;;12.63;4.87;;;;;;;7.77;63.52;98926.31;4881892;29;20270;-88
2022/03/05 04:09:44;;;;;;;10.53;5.33;;;;;;;7.81;63.25;98920.03;4898521;29;20614;-88
2022/03/05 04:12:09;;;;;;;11.20;5.00;;;;;;;7.72;64.17;98926.53;4898233;29;20183;-88
2022/03/05 04:14:38;;;;;;;9.00;4.77;;;;;;;7.69;64.51;98926.66;4898486;29;20681;-88
2022/03/05 04:17:04;;;;;;;9.80;5.60;;;;;;;7.69;64.27;98924.06;4898121;29;20602;-88
2022/03/05 04:19:29;;;;;;;16.20;6.73;;;;;;;7.69;64.73;98928.44;4881588;29;20175;-88
2022/03/05 04:21:55;;;;;;;17.43;6.27;;;;;;;7.68;63.80;98931.97;4898313;29;20189;-88
2022/03/05 04:24:20;;;;;;;9.63;4.87;;;;;;;7.70;64.36;98930.13;4881431;29;20618;-88
2022/03/05 04:26:46;;;;;;;11.70;6.37;;;;;;;7.68;64.24;98940.63;4898016;29;20261;-88
2022/03/05 04:29:11;;;;;;;14.73;6.83;;;;;;;7.70;64.82;98940.56;4898094;29;20202;-88
2022/03/05 04:31:37;;;;;;;12.97;6.07;;;;;;;7.72;64.70;98947.41;4897966;29;20535;-88
2022/03/05 04:34:02;;;;;;;13.90;7.17;;;;;;;7.72;65.01;98947.41;4898167;29;20283;-88
2022/03/05 04:36:28;;;;;;;28.43;11.93;;;;;;;7.75;64.00;98942.06;4881475;29;20277;-88
2022/03/05 04:38:53;;;;;;;19.10;9.17;;;;;;;7.77;63.88;98945.44;4897926;29;20179;-88
2022/03/05 04:41:20;;;;;;;9.80;5.97;;;;;;;7.79;64.08;98942.75;4897753;29;20215;-88
2022/03/05 04:43:47;;;;;;;11.93;5.80;;;;;;;7.79;63.88;98947.97;4881316;29;20210;-88
2022/03/05 04:46:12;;;;;;;11.30;6.23;;;;;;;7.76;64.18;98946.34;4897823;29;20210;-88
2022/03/05 04:48:38;;;;;;;21.27;8.37;;;;;;;7.72;63.54;98951.78;4897987;29;20631;-88
2022/03/05 04:51:03;;;;;;;12.67;6.17;;;;;;;7.69;63.88;98952.75;4898080;29;20183;-88
2022/03/05 04:53:29;;;;;;;15.57;6.10;;;;;;;7.68;64.33;98951.06;4881297;29;20191;-88
2022/03/05 04:55:54;;;;;;;12.13;6.43;;;;;;;7.60;64.01;98942.72;4898000;29;20266;-88
2022/03/05 04:58:20;;;;;;;13.87;5.57;;;;;;;7.57;64.09;98937.66;4881193;29;20222;-88
2022/03/05 05:00:45;;;;;;;11.70;6.30;;;;;;;7.46;64.69;98933.81;4897709;29;20171;-87
2022/03/05 05:03:11;;;;;;;13.03;5.47;;;;;;;7.34;65.44;98932.56;4897657;29;20183;-88
2022/03/05 05:05:36;;;;;;;15.77;7.60;;;;;;;7.32;65.51;98942.22;4881109;29;20598;-88
2022/03/05 05:08:02;;;;;;;11.30;6.87;;;;;;;7.37;65.31;98948.06;4897499;29;20231;-87
2022/03/05 05:10:28;;;;;;;12.90;6.10;;;;;;;7.37;66.15;98945.47;4897581;29;20646;-88
2022/03/05 05:12:53;;;;;;;11.87;7.00;;;;;;;7.35;65.91;98957.72;4897829;29;20241;-87
2022/03/05 05:15:19;;;;;;;12.13;6.67;;;;;;;7.39;65.52;98967.94;4897642;29;20227;-88
2022/03/05 05:17:44;;;;;;;12.17;6.40;;;;;;;7.33;66.63;98968.22;4898124;29;20175;-88
2022/03/05 05:20:11;;;;;;;14.13;5.20;;;;;;;7.41;66.39;98973.13;4897829;29;20311;-88
2022/03/05 05:22:36;;;;;;;11.30;6.73;;;;;;;7.56;65.86;98982.91;4897811;29;20180;-87
2022/03/05 05:25:04;;;;;;;10.73;5.33;;;;;;;7.64;65.05;98980.81;4897519;29;20190;-87
2022/03/05 05:27:34;;;;;;;18.07;6.90;;;;;;;7.72;63.84;98983.94;4897495;29;20234;-88
2022/03/05 05:30:00;;;;;;;11.33;5.93;;;;;;;7.78;63.17;98982.81;4881002;29;20182;-88
2022/03/05 05:32:25;;;;;;;17.37;7.37;;;;;;;7.73;63.59;98990.81;4897416;29;20191;-88
2022/03/05 05:34:51;;;;;;;11.67;5.37;;;;;;;7.77;63.32;98987.19;4897447;29;20195;-88
2022/03/05 05:37:16;;;;;;;10.77;6.27;;;;;;;7.78;62.57;98986.25;4897912;29;20175;-88
2022/03/05 05:39:42;;;;;;;25.63;5.60;;;;;;;7.69;62.03;98994.50;4897676;29;20175;-87
2022/03/05 05:42:08;;;;;;;9.33;4.83;;;;;;;7.65;62.55;99000.75;4883443;29;20186;-88
2022/03/05 05:44:33;;;;;;;14.50;7.77;;;;;;;7.63;63.06;98999.97;4884359;29;20195;-88
2022/03/05 05:46:59;;;;;;;15.23;7.03;;;;;;;7.64;63.31;99003.44;4900830;29;20246;-88
2022/03/05 05:49:24;;;;;;;14.70;6.47;;;;;;;7.73;63.31;99010.88;4900704;29;20274;-88
2022/03/05 05:51:50;;;;;;;13.90;6.53;;;;;;;7.79;63.30;99010.59;4900787;29;20520;-87
2022/03/05 05:54:15;;;;;;;16.10;6.03;;;;;;;7.86;62.81;99010.25;4900721;29;20207;-88
2022/03/05 05:56:41;;;;;;;11.47;6.17;;;;;;;7.91;62.12;99015.28;4900910;29;20189;-88
2022/03/05 05:59:06;;;;;;;14.70;6.83;;;;;;;8.06;61.32;99009.38;4900866;29;20172;-88
2022/03/05 06:01:32;;;;;;;12.97;5.67;;;;;;;8.04;61.99;99011.22;4900530;29;20609;-88
2022/03/05 06:03:58;;;;;;;11.43;5.77;;;;;;;8.03;62.22;99015.59;4883965;29;20266;-88
2022/03/05 06:06:23;;;;;;;18.80;7.33;;;;;;;8.12;61.97;99005.66;4900367;29;20696;-88
2022/03/05 06:08:49;;;;;;;17.07;7.37;;;;;;;8.20;61.93;99011.38;4900656;29;20641;-88
2022/03/05 06:11:15;;;;;;;16.47;5.63;;;;;;;8.18;61.77;99014.06;4883885;29;20187;-88
2022/03/05 06:13:42;;;;;;;14.90;6.67;;;;;;;8.19;62.24;99012.28;4900639;29;20203;-89
2022/03/05 06:16:07;;;;;;;23.00;9.27;;;;;;;8.23;63.12;99009.47;4883787;29;20183;-89
2022/03/05 06:18:33;;;;;;;20.73;9.90;;;;;;;8.30;63.85;99017.91;4900546;29;20258;-89
2022/03/05 06:20:59;;;;;;;23.67;10.97;;;;;;;8.30;64.23;99012.69;4900304;29;20211;-89
2022/03/05 06:23:25;;;;;;;22.13;11.40;;;;;;;8.34;64.06;99011.63;4900161;29;20326;-89
2022/03/05 06:25:51;;;;;;;22.53;11.83;;;;;;;8.40;64.47;99014.81;4883745;29;20222;-89
2022/03/05 06:28:17;;;;;;;20.73;9.77;;;;;;;8.41;65.00;99015.69;4900148;29;20199;-90
2022/03/05 06:30:43;;;;;;;25.67;10.87;;;;;;;8.42;65.88;99017.34;4900149;29;20183;-90
2022/03/05 06:33:08;;;;;;;25.90;10.73;;;;;;;8.47;65.71;99012.75;4900172;29;20206;-90
2022/03/05 06:35:37;;;;;;;19.63;9.97;;;;;;;8.51;66.15;99012.56;4883582;29;20220;-89
2022/03/05 06:38:02;;;;;;;24.93;12.07;;;;;;;8.53;66.24;99022.94;4900733;29;20180;-90
2022/03/05 06:40:28;;;;;;;24.47;10.93;;;;;;;8.54;65.98;99016.81;4884516;29;20641;-90
2022/03/05 06:42:55;;;;;;;30.60;14.07;;;;;;;8.70;66.14;99023.00;4883429;29;20191;-90
2022/03/05 06:45:22;;;;;;;26.50;11.77;;;;;;;8.96;66.29;99025.22;4900241;29;20266;-90
2022/03/05 06:47:51;;;;;;;24.83;11.90;;;;;;;9.22;65.26;99022.19;4899907;29;20274;-91
2022/03/05 06:50:20;;;;;;;20.10;10.90;;;;;;;9.37;65.08;99025.00;4899851;29;20183;-90
2022/03/05 06:52:46;;;;;;;21.53;11.53;;;;;;;9.55;64.50;99024.06;4883116;29;20284;-90
2022/03/05 06:55:14;;;;;;;23.53;9.73;;;;;;;9.76;65.20;99036.06;4900337;29;20274;-90
2022/03/05 06:57:41;;;;;;;19.40;9.57;;;;;;;10.05;64.93;99034.56;4899939;29;20196;-90
2022/03/05 07:00:08;;;;;;;17.40;8.47;;;;;;;10.32;64.83;99039.25;4899688;29;20185;-90
2022/03/05 07:02:33;;;;;;;18.80;9.20;;;;;;;10.51;63.88;99035.66;4883024;29;20183;-90
2022/03/05 07:04:59;;;;;;;20.70;11.10;;;;;;;10.58;63.31;99039.63;4883409;29;20197;-90
2022/03/05 07:07:24;;;;;;;20.90;10.97;;;;;;;10.55;63.16;99039.78;4899551;29;20325;-90
2022/03/05 07:09:51;;;;;;;27.70;10.40;;;;;;;10.42;63.58;99037.00;4883223;29;20694;-89
2022/03/05 07:12:16;;;;;;;23.73;10.50;;;;;;;10.60;62.78;99045.63;4882891;29;20208;-90
2022/03/05 07:14:44;;;;;;;24.27;10.27;;;;;;;10.70;62.28;99046.81;4899274;29;20183;-90
2022/03/05 07:17:10;;;;;;;26.33;11.73;;;;;;;10.74;62.30;99045.75;4882801;29;20621;-90
2022/03/05 07:19:36;;;;;;;22.70;10.60;;;;;;;10.75;62.17;99042.16;4899536;29;20190;-90
2022/03/05 07:22:02;;;;;;;23.13;9.77;;;;;;;10.64;61.53;99045.38;4882595;29;20187;-90
2022/03/05 07:24:27;;;;;;;17.00;8.93;;;;;;;10.45;62.24;99050.75;4882683;29;20195;-90
2022/03/05 07:26:53;;;;;;;22.17;10.40;;;;;;;10.64;61.67;99048.00;4882499;29;20274;-90
2022/03/05 07:29:18;;;;;;;19.80;9.57;;;;;;;10.79;61.58;99055.06;4899079;29;20665;-89
2022/03/05 07:31:45;;;;;;;20.60;9.53;;;;;;;10.84;61.39;99058.25;4882537;29;20689;-90
2022/03/05 07:34:10;;;;;;;16.23;9.00;;;;;;;10.64;61.51;99063.72;4882571;29;20213;-90
2022/03/05 07:36:36;;;;;;;14.63;8.33;;;;;;;10.75;61.09;99060.53;4882566;29;20697;-89
2022/03/05 07:39:03;;;;;;;15.77;8.27;;;;;;;10.82;60.61;99056.66;4898854;29;20660;-89
2022/03/05 07:41:29;;;;;;;14.53;7.60;;;;;;;10.92;60.48;99055.22;4882330;29;20648;-89
2022/03/05 07:43:57;;;;;;;19.60;8.47;;;;;;;11.07;60.68;99051.72;4898785;29;20179;-90
2022/03/05 07:46:22;;;;;;;13.57;6.43;;;;;;;11.03;60.44;99052.84;4882428;29;20331;-90
2022/03/05 07:48:48;;;;;;;15.53;7.73;;;;;;;11.13;59.77;99058.41;4898710;29;20290;-89
2022/03/05 07:51:13;;;;;;;12.67;6.77;;;;;;;11.23;60.01;99054.34;4883007;29;20203;-89
2022/03/05 07:53:39;;;;;;;16.73;7.90;;;;;;;11.13;60.52;99064.53;4898682;29;20691;-90
2022/03/05 07:56:05;;;;;;;13.20;6.40;;;;;;;11.17;60.20;99055.53;4898883;29;20259;-90
2022/03/05 07:58:30;;;;;;;11.67;6.90;;;;;;;11.11;59.97;99055.88;4898555;29;20179;-90
2022/03/05 08:00:58;;;;;;;16.30;8.37;;;;;;;11.05;59.32;99056.22;4898568;29;20262;-90
2022/03/05 08:03:23;;;;;;;15.73;6.40;;;;;;;10.99;58.85;99046.06;4898056;29;20282;-89
2022/03/05 08:05:49;;;;;;;17.57;7.47;;;;;;;10.64;58.56;99040.13;4898707;29;20668;-88
2022/03/05 08:08:15;;;;;;;17.30;7.93;;;;;;;10.14;58.86;99045.44;4898198;29;20226;-89
2022/03/05 08:10:40;;;;;;;19.57;9.63;;;;;;;10.08;60.27;99045.75;4881903;29;20202;-89
2022/03/05 08:13:06;;;;;;;16.63;8.97;;;;;;;9.99;61.16;99050.59;4898337;29;20543;-89
2022/03/05 08:15:32;;;;;;;18.80;9.80;;;;;;;9.68;60.97;99053.94;4881866;29;20187;-90
2022/03/05 08:17:59;;;;;;;30.10;10.50;;;;;;;9.51;62.22;99054.75;4898323;29;20175;-89
2022/03/05 08:20:27;;;;;;;21.67;8.93;;;;;;;9.28;63.67;99055.03;4898766;29;20182;-89
2022/03/05 08:22:53;;;;;;;16.43;7.83;;;;;;;9.05;66.29;99055.31;4882029;29;20622;-89
2022/03/05 08:25:19;;;;;;;18.37;8.00;;;;;;;9.30;66.97;99055.00;4882438;29;20187;-89
2022/03/05 08:27:44;;;;;;;25.67;8.63;;;;;;;9.39;64.97;99060.59;4881755;29;20684;-89
2022/03/05 08:30:11;;;;;;;23.17;9.77;;;;;;;9.41;65.28;99057.94;4898098;29;20186;-89
2022/03/05 08:32:37;;;;;;;28.17;9.70;;;;;;;9.43;65.46;99058.69;4897999;29;20186;-89
2022/03/05 08:35:04;;;;;;;20.90;9.27;;;;;;;9.27;65.65;99059.47;4881483;29;20183;-88
2022/03/05 08:37:30;;;;;;;18.67;7.60;;;;;;;9.24;65.66;99056.97;4898759;29;20719;-89
2022/03/05 08:39:55;;;;;;;21.40;9.43;;;;;;;9.18;65.86;99062.50;4897925;29;20190;-89
2022/03/05 08:42:21;;;;;;;19.40;8.33;;;;;;;9.57;67.32;99058.84;4898233;29;20187;-89
2022/03/05 08:44:47;;;;;;;20.17;9.33;;;;;;;9.94;65.28;99049.97;4898208;29;20183;-89
2022/03/05 08:47:12;;;;;;;28.80;11.80;;;;;;;10.25;64.34;99060.59;4897918;29;20250;-89
2022/03/05 08:49:38;;;;;;;24.50;10.90;;;;;;;10.44;63.63;99043.84;4897833;29;20570;-89
2022/03/05 08:52:05;;;;;;;20.47;9.53;;;;;;;10.43;62.53;99049.16;4897861;29;20184;-88
2022/03/05 08:54:31;;;;;;;27.47;11.43;;;;;;;10.81;61.91;99047.94;4881454;29;20182;-90
2022/03/05 08:56:57;;;;;;;25.90;9.30;;;;;;;11.14;62.29;99042.56;4898154;29;20183;-89
2022/03/05 08:59:22;;;;;;;24.27;10.33;;;;;;;10.90;58.41;99043.97;4897836;29;20175;-89
2022/03/05 09:01:48;;;;;;;13.97;8.33;;;;;;;11.00;61.02;99053.00;4881300;29;20201;-88
2022/03/05 09:04:14;;;;;;;28.57;10.07;;;;;;;11.14;57.86;99045.19;4881235;29;20633;-89
2022/03/05 09:06:39;;;;;;;17.20;8.03;;;;;;;11.00;57.68;99048.63;4881136;29;20252;-90
2022/03/05 09:09:06;;;;;;;24.53;10.93;;;;;;;11.14;59.37;99054.88;4881282;29;20203;-90
2022/03/05 09:11:32;;;;;;;17.70;10.20;;;;;;;11.20;58.79;99050.13;4897760;29;20183;-89
2022/03/05 09:13:58;;;;;;;21.10;10.40;;;;;;;11.37;58.45;99055.25;4897721;29;20266;-89
2022/03/05 09:16:23;;;;;;;26.27;10.43;;;;;;;11.24;58.62;99067.38;4884399;29;20207;-89
2022/03/05 09:18:49;;;;;;;28.70;10.33;;;;;;;11.37;58.65;99062.28;4901524;29;20175;-90
2022/03/05 09:21:15;;;;;;;27.13;10.00;;;;;;;11.58;58.63;99061.88;4901766;29;20187;-89
2022/03/05 09:23:40;;;;;;;26.60;10.20;;;;;;;11.50;57.31;99058.84;4901337;29;20179;-89
2022/03/05 09:26:06;;;;;;;21.33;11.33;;;;;;;11.81;59.86;99067.63;4901378;29;20198;-89
2022/03/05 09:28:31;;;;;;;24.17;10.33;;;;;;;12.01;58.12;99068.13;4901564;29;20199;-89
2022/03/05 09:30:58;;;;;;;43.77;12.77;;;;;;;11.99;57.27;99069.16;4901597;29;20186;-89
2022/03/05 09:33:25;;;;;;;27.43;11.67;;;;;;;12.11;55.67;99078.94;4901207;29;20179;-90
2022/03/05 09:35:51;;;;;;;24.40;10.83;;;;;;;12.24;54.98;99077.25;4885487;29;20191;-90
2022/03/05 09:38:18;;;;;;;31.63;13.83;;;;;;;12.25;54.65;99078.97;4901420;29;20175;-90
2022/03/05 09:40:43;;;;;;;26.57;14.03;;;;;;;12.14;54.44;99079.59;4901626;29;20639;-90
2022/03/05 09:43:09;;;;;;;32.07;14.03;;;;;;;12.16;55.61;99069.00;4884622;29;20187;-90
2022/03/05 09:45:37;;;;;;;29.73;12.93;;;;;;;12.23;55.74;99067.72;4884624;29;20701;-90
2022/03/05 09:48:03;;;;;;;23.97;11.57;;;;;;;12.27;56.24;99063.94;4900914;29;20645;-90
2022/03/05 09:50:29;;;;;;;51.60;17.33;;;;;;;12.45;54.77;99054.13;4884430;29;20183;-91
2022/03/05 09:52:58;;;;;;;36.83;18.57;;;;;;;12.51;54.03;99067.72;4901005;29;20176;-89
2022/03/05 09:55:35;;;;;;;47.30;17.50;;;;;;;12.63;53.30;99068.75;4884435;29;20187;-91
2022/03/05 09:58:01;;;;;;;33.47;17.37;;;;;;;12.36;54.17;99066.03;4901263;29;20179;-90
2022/03/05 10:00:27;;;;;;;37.70;16.10;;;;;;;12.37;54.43;99062.44;4900823;29;20187;-89
2022/03/05 10:02:53;;;;;;;42.47;17.70;;;;;;;12.40;54.26;99057.00;4900981;29;20758;-90
2022/03/05 10:05:28;;;;;;;45.80;20.10;;;;;;;12.57;53.91;99059.47;4900722;29;20194;-90
2022/03/05 10:08:15;;;;;;;40.93;18.60;;;;;;;12.77;54.21;99051.16;4883984;29;20195;-90
2022/03/05 10:10:40;;;;;;;35.80;16.10;;;;;;;12.78;53.50;99050.22;4884199;29;20239;-90
2022/03/05 10:13:36;;;;;;;43.77;18.47;;;;;;;12.81;53.03;99051.81;4900537;29;20270;-89
2022/03/05 10:16:25;;;;;;;48.43;18.77;;;;;;;12.90;52.20;99041.56;4865594;29;20192;-90
2022/03/05 10:18:53;;;;;;;51.87;22.03;;;;;;;12.56;52.20;99049.88;4900801;29;20267;-90
2022/03/05 10:21:25;;;;;;;45.07;21.50;;;;;;;12.51;53.04;99051.94;4900424;29;20171;-89
2022/03/05 10:24:04;;;;;;;49.17;19.87;;;;;;;12.61;54.01;99047.78;4884001;29;20463;-89
2022/03/05 10:26:49;;;;;;;39.73;18.10;;;;;;;12.84;54.99;99041.13;4883325;29;20175;-91
2022/03/05 10:29:34;;;;;;;41.70;19.40;;;;;;;13.04;52.61;99037.19;4883839;29;20215;-90
2022/03/05 10:32:04;;;;;;;27.67;12.53;;;;;;;13.23;51.15;99032.47;4900556;29;20191;-89
2022/03/05 10:34:50;;;;;;;27.73;13.13;;;;;;;13.34;52.11;99032.59;4900072;29;20207;-90
2022/03/05 10:37:21;;;;;;;21.70;12.17;;;;;;;13.49;52.81;99034.25;4883532;29;20288;-91
2022/03/05 10:39:53;;;;;;;38.20;15.90;;;;;;;13.77;51.31;99028.81;4884401;29;20168;-89
2022/03/05 10:42:24;;;;;;;42.97;16.67;;;;;;;13.75;48.81;99033.38;4883524;29;20172;-90
2022/03/05 10:45:02;;;;;;;39.83;13.13;;;;;;;13.50;49.39;99035.91;4900028;29;20612;-89
2022/03/05 10:47:41;;;;;;;29.07;13.13;;;;;;;13.49;49.04;99031.63;4900426;29;20191;-90
2022/03/05 10:50:19;;;;;;;31.53;13.23;;;;;;;13.65;48.11;99024.41;4900523;29;20177;-89
2022/03/05 10:52:49;;;;;;;27.13;10.20;;;;;;;13.57;48.54;99026.69;4884197;29;20180;-90
2022/03/05 10:55:24;;;;;;;23.93;10.80;;;;;;;13.66;48.76;99020.78;4884122;29;20208;-89
2022/03/05 10:58:00;;;;;;;27.87;11.80;;;;;;;13.71;48.66;99026.59;4883346;29;20168;-91
2022/03/05 11:00:26;;;;;;;20.23;10.00;;;;;;;13.62;49.40;99019.31;4899765;29;20511;-89
2022/03/05 11:02:52;;;;;;;22.07;9.10;;;;;;;13.50;48.79;99020.13;4899706;29;20222;-91
2022/03/05 11:05:43;;;;;;;;;;;;;;;;;;;;;
2022/03/05 11:08:09;;;;;;;13.97;7.77;;;;;;;13.46;47.14;99018.66;4899805;29;20216;-90
2022/03/05 11:10:36;;;;;;;21.30;10.10;;;;;;;13.34;48.35;99020.28;4899549;29;20181;-90
2022/03/05 11:13:04;;;;;;;21.17;10.03;;;;;;;13.42;48.58;99015.38;4883158;29;20704;-89
2022/03/05 11:15:33;;;;;;;15.40;9.27;;;;;;;13.40;48.57;99008.50;4899432;29;20194;-89
2022/03/05 11:18:25;;;;;;;22.67;8.80;;;;;;;13.40;48.38;99008.50;4899974;29;20186;-91
2022/03/05 11:20:53;;;;;;;17.70;9.13;;;;;;;13.38;48.80;99006.00;4899319;29;20558;-91
2022/03/05 11:23:20;;;;;;;22.97;10.13;;;;;;;13.72;47.70;99001.94;4899361;29;20182;-89
2022/03/05 11:25:46;;;;;;;18.47;8.47;;;;;;;13.85;46.80;98992.28;4883125;29;20198;-89
2022/03/05 11:28:18;;;;;;;19.20;10.70;;;;;;;13.84;48.02;98989.72;4899181;29;20255;-90
2022/03/05 11:30:45;;;;;;;21.57;10.57;;;;;;;13.95;47.56;98995.97;4899390;29;20692;-89
2022/03/05 11:33:43;;;;;;;22.90;10.57;;;;;;;13.67;46.14;98996.16;4882634;29;20191;-89